sensor_id;sensor_type;location;lat;lon;timestamp;pressure;altitude;pressure_sealevel;temperature;humidity
20394;BME280;10356;50.544;9.642;2022-12-10T00:01:41;97266.50;;;0.35;100.00
20394;BME280;10356;50.544;9.642;2022-12-10T00:04:09;97269.91;;;0.35;100.00
20394;BME280;10356;50.544;9.642;2022-12-10T00:06:37;97274.78;;;0.40;100.00
20394;BME280;10356;50.544;9.642;2022-12-10T00:09:06;97271.06;;;0.45;100.00
20394;BME280;10356;50.544;9.642;2022-12-10T00:11:34;97271.06;;;0.45;100.00
20394;BME280;10356;50.544;9.642;2022-12-10T00:14:00;97271.41;;;0.39;100.00
20394;BME280;10356;50.544;9.642;2022-12-10T00:16:28;97263.47;;;0.44;100.00
20394;BME280;10356;50.544;9.642;2022-12-10T00:18:55;97273.06;;;0.40;100.00
20394;BME280;10356;50.544;9.642;2022-12-10T00:21:26;97271.31;;;0.41;100.00
20394;BME280;10356;50.544;9.642;2022-12-10T00:23:53;97272.00;;;0.44;100.00
20394;BME280;10356;50.544;9.642;2022-12-10T00:26:21;97273.81;;;0.42;100.00
20394;BME280;10356;50.544;9.642;2022-12-10T00:28:49;97273.06;;;0.40;100.00
20394;BME280;10356;50.544;9.642;2022-12-10T00:31:19;97278.19;;;0.40;100.00
20394;BME280;10356;50.544;9.642;2022-12-10T00:33:46;97278.34;;;0.37;100.00
20394;BME280;10356;50.544;9.642;2022-12-10T00:36:14;97270.84;;;0.34;100.00
20394;BME280;10356;50.544;9.642;2022-12-10T00:38:43;97270.75;;;0.36;100.00
20394;BME280;10356;50.544;9.642;2022-12-10T00:41:10;97268.28;;;0.34;100.00
20394;BME280;10356;50.544;9.642;2022-12-10T00:43:38;97272.56;;;0.34;100.00
20394;BME280;10356;50.544;9.642;2022-12-10T00:46:05;97273.06;;;0.40;100.00
20394;BME280;10356;50.544;9.642;2022-12-10T00:48:32;97270.50;;;0.40;100.00
20394;BME280;10356;50.544;9.642;2022-12-10T00:51:02;97273.88;;;0.41;100.00
20394;BME280;10356;50.544;9.642;2022-12-10T00:53:30;97276.69;;;0.36;100.00
20394;BME280;10356;50.544;9.642;2022-12-10T00:55:59;97274.19;;;0.35;100.00
20394;BME280;10356;50.544;9.642;2022-12-10T00:58:26;97283.31;;;0.40;100.00
20394;BME280;10356;50.544;9.642;2022-12-10T01:00:53;97275.78;;;0.37;100.00
20394;BME280;10356;50.544;9.642;2022-12-10T01:03:20;97272.56;;;0.34;100.00
20394;BME280;10356;50.544;9.642;2022-12-10T01:05:46;97266.28;;;0.39;100.00
20394;BME280;10356;50.544;9.642;2022-12-10T01:08:13;97270.41;;;0.42;100.00
20394;BME280;10356;50.544;9.642;2022-12-10T01:10:39;97272.06;;;0.43;100.00
20394;BME280;10356;50.544;9.642;2022-12-10T01:13:07;97276.38;;;0.42;100.00
20394;BME280;10356;50.544;9.642;2022-12-10T01:15:37;97282.81;;;0.49;100.00
20394;BME280;10356;50.544;9.642;2022-12-10T01:18:04;97280.44;;;0.46;100.00
20394;BME280;10356;50.544;9.642;2022-12-10T01:20:34;97283.88;;;0.45;100.00
20394;BME280;10356;50.544;9.642;2022-12-10T01:23:01;97283.00;;;0.46;100.00
20394;BME280;10356;50.544;9.642;2022-12-10T01:25:27;97281.97;;;0.49;100.00
20394;BME280;10356;50.544;9.642;2022-12-10T01:27:53;97280.03;;;0.54;100.00
20394;BME280;10356;50.544;9.642;2022-12-10T01:30:21;97288.78;;;0.50;100.00
20394;BME280;10356;50.544;9.642;2022-12-10T01:32:48;97295.63;;;0.49;100.00
20394;BME280;10356;50.544;9.642;2022-12-10T01:35:14;97293.91;;;0.50;100.00
20394;BME280;10356;50.544;9.642;2022-12-10T01:37:41;97292.91;;;0.52;100.00
20394;BME280;10356;50.544;9.642;2022-12-10T01:40:09;97298.69;;;0.56;100.00
20394;BME280;10356;50.544;9.642;2022-12-10T01:42:35;97296.22;;;0.54;100.00
20394;BME280;10356;50.544;9.642;2022-12-10T01:45:08;97303.81;;;0.56;100.00
20394;BME280;10356;50.544;9.642;2022-12-10T01:47:37;97301.34;;;0.54;100.00
20394;BME280;10356;50.544;9.642;2022-12-10T01:50:06;97303.97;;;0.53;100.00
20394;BME280;10356;50.544;9.642;2022-12-10T01:52:33;97301.34;;;0.54;100.00
20394;BME280;10356;50.544;9.642;2022-12-10T01:54:59;97317.72;;;0.52;100.00
20394;BME280;10356;50.544;9.642;2022-12-10T01:57:27;97314.31;;;0.51;100.00
20394;BME280;10356;50.544;9.642;2022-12-10T01:59:56;97317.84;;;0.49;100.00
20394;BME280;10356;50.544;9.642;2022-12-10T02:02:31;97308.19;;;0.54;100.00
20394;BME280;10356;50.544;9.642;2022-12-10T02:05:18;97315.06;;;0.53;100.00
20394;BME280;10356;50.544;9.642;2022-12-10T02:07:55;97313.56;;;0.49;100.00
20394;BME280;10356;50.544;9.642;2022-12-10T02:10:30;97309.78;;;0.56;100.00
20394;BME280;10356;50.544;9.642;2022-12-10T02:13:06;97306.28;;;0.57;100.00
20394;BME280;10356;50.544;9.642;2022-12-10T02:15:36;97313.09;;;0.58;100.00
20394;BME280;10356;50.544;9.642;2022-12-10T02:18:09;97308.84;;;0.57;100.00
20394;BME280;10356;50.544;9.642;2022-12-10T02:20:41;97305.63;;;0.54;100.00
20394;BME280;10356;50.544;9.642;2022-12-10T02:23:12;97305.47;;;0.57;100.00
20394;BME280;10356;50.544;9.642;2022-12-10T02:25:42;97306.28;;;0.57;100.00
20394;BME280;10356;50.544;9.642;2022-12-10T02:28:13;97306.47;;;0.54;100.00
20394;BME280;10356;50.544;9.642;2022-12-10T02:30:45;97298.47;;;0.60;100.00
20394;BME280;10356;50.544;9.642;2022-12-10T02:33:14;97294.41;;;0.56;100.00
20394;BME280;10356;50.544;9.642;2022-12-10T02:35:43;97287.19;;;0.63;100.00
20394;BME280;10356;50.544;9.642;2022-12-10T02:38:12;97285.47;;;0.63;100.00
20394;BME280;10356;50.544;9.642;2022-12-10T02:40:45;97285.66;;;0.60;100.00
20394;BME280;10356;50.544;9.642;2022-12-10T02:43:13;97292.41;;;0.61;100.00
20394;BME280;10356;50.544;9.642;2022-12-10T02:45:42;97289.69;;;0.64;100.00
20394;BME280;10356;50.544;9.642;2022-12-10T02:48:11;97295.22;;;0.57;100.00
20394;BME280;10356;50.544;9.642;2022-12-10T02:50:39;97287.53;;;0.57;100.00
20394;BME280;10356;50.544;9.642;2022-12-10T02:53:06;97290.25;;;0.54;100.00
20394;BME280;10356;50.544;9.642;2022-12-10T02:55:46;97287.63;;;0.55;100.00
20394;BME280;10356;50.544;9.642;2022-12-10T02:58:22;97296.03;;;0.57;100.00
20394;BME280;10356;50.544;9.642;2022-12-10T03:00:58;97290.59;;;0.63;100.00
20394;BME280;10356;50.544;9.642;2022-12-10T03:03:34;97290.78;;;0.60;100.00
20394;BME280;10356;50.544;9.642;2022-12-10T03:06:09;97297.72;;;0.58;100.00
20394;BME280;10356;50.544;9.642;2022-12-10T03:08:42;97291.91;;;0.55;100.00
20394;BME280;10356;50.544;9.642;2022-12-10T03:11:12;97291.09;;;0.54;100.00
20394;BME280;10356;50.544;9.642;2022-12-10T03:13:47;97293.66;;;0.54;100.00
20394;BME280;10356;50.544;9.642;2022-12-10T03:16:17;97293.81;;;0.51;100.00
20394;BME280;10356;50.544;9.642;2022-12-10T03:18:47;97291.09;;;0.54;100.00
20394;BME280;10356;50.544;9.642;2022-12-10T03:21:16;97299.69;;;0.53;100.00
20394;BME280;10356;50.544;9.642;2022-12-10T03:23:46;97297.34;;;0.49;100.00
20394;BME280;10356;50.544;9.642;2022-12-10T03:26:14;97289.59;;;0.50;100.00
20394;BME280;10356;50.544;9.642;2022-12-10T03:28:45;97294.78;;;0.49;100.00
20394;BME280;10356;50.544;9.642;2022-12-10T03:31:14;97289.75;;;0.47;100.00
20394;BME280;10356;50.544;9.642;2022-12-10T03:33:41;97293.16;;;0.48;100.00
20394;BME280;10356;50.544;9.642;2022-12-10T03:36:10;97301.50;;;0.51;100.00
20394;BME280;10356;50.544;9.642;2022-12-10T03:38:37;97302.41;;;0.50;100.00
20394;BME280;10356;50.544;9.642;2022-12-10T03:41:04;97294.47;;;0.55;100.00
20394;BME280;10356;50.544;9.642;2022-12-10T03:43:31;97291.09;;;0.54;100.00
20394;BME280;10356;50.544;9.642;2022-12-10T03:45:57;97287.78;;;0.52;100.00
20394;BME280;10356;50.544;9.642;2022-12-10T03:48:24;97292.22;;;0.49;100.00
20394;BME280;10356;50.544;9.642;2022-12-10T03:50:50;97280.84;;;0.54;100.00
20394;BME280;10356;50.544;9.642;2022-12-10T03:53:18;97286.13;;;0.51;100.00
20394;BME280;10356;50.544;9.642;2022-12-10T03:55:44;97281.19;;;0.48;100.00
20394;BME280;10356;50.544;9.642;2022-12-10T03:58:11;97280.03;;;0.54;100.00
20394;BME280;10356;50.544;9.642;2022-12-10T04:00:37;97280.09;;;0.52;100.00
20394;BME280;10356;50.544;9.642;2022-12-10T04:03:04;97282.66;;;0.52;100.00
20394;BME280;10356;50.544;9.642;2022-12-10T04:05:30;97282.41;;;0.57;100.00
20394;BME280;10356;50.544;9.642;2022-12-10T04:07:57;97281.75;;;0.53;100.00
20394;BME280;10356;50.544;9.642;2022-12-10T04:10:25;97287.63;;;0.55;100.00
20394;BME280;10356;50.544;9.642;2022-12-10T04:12:51;97285.16;;;0.54;100.00
20394;BME280;10356;50.544;9.642;2022-12-10T04:15:31;97283.47;;;0.53;100.00
20394;BME280;10356;50.544;9.642;2022-12-10T04:18:18;97289.44;;;0.53;100.00
20394;BME280;10356;50.544;9.642;2022-12-10T04:20:44;97290.19;;;0.55;100.00
20394;BME280;10356;50.544;9.642;2022-12-10T04:23:28;97284.31;;;0.53;100.00
20394;BME280;10356;50.544;9.642;2022-12-10T04:26:13;97280.09;;;0.52;100.00
20394;BME280;10356;50.544;9.642;2022-12-10T04:28:54;97288.69;;;0.51;100.00
20394;BME280;10356;50.544;9.642;2022-12-10T04:31:20;97276.47;;;0.56;100.00
20394;BME280;10356;50.544;9.642;2022-12-10T04:33:47;97282.34;;;0.58;100.00
20394;BME280;10356;50.544;9.642;2022-12-10T04:36:13;97280.84;;;0.54;100.00
20394;BME280;10356;50.544;9.642;2022-12-10T04:38:40;97283.47;;;0.53;100.00
20394;BME280;10356;50.544;9.642;2022-12-10T04:41:06;97292.09;;;0.52;100.00
20394;BME280;10356;50.544;9.642;2022-12-10T04:43:41;97286.97;;;0.52;100.00
20394;BME280;10356;50.544;9.642;2022-12-10T04:46:08;97286.97;;;0.52;100.00
20394;BME280;10356;50.544;9.642;2022-12-10T04:48:35;97289.34;;;0.55;100.00
20394;BME280;10356;50.544;9.642;2022-12-10T04:51:02;97288.34;;;0.57;100.00
20394;BME280;10356;50.544;9.642;2022-12-10T04:53:29;97294.47;;;0.55;100.00
20394;BME280;10356;50.544;9.642;2022-12-10T04:55:55;97284.06;;;0.58;100.00
20394;BME280;10356;50.544;9.642;2022-12-10T04:58:22;97290.94;;;0.57;100.00
20394;BME280;10356;50.544;9.642;2022-12-10T05:00:49;97289.69;;;0.64;100.00
20394;BME280;10356;50.544;9.642;2022-12-10T05:03:16;97292.41;;;0.61;100.00
20394;BME280;10356;50.544;9.642;2022-12-10T05:05:43;97293.81;;;0.67;100.00
20394;BME280;10356;50.544;9.642;2022-12-10T05:08:09;97293.75;;;0.68;100.00
20394;BME280;10356;50.544;9.642;2022-12-10T05:10:35;97297.53;;;0.61;100.00
20394;BME280;10356;50.544;9.642;2022-12-10T05:13:02;97306.91;;;0.62;100.00
20394;BME280;10356;50.544;9.642;2022-12-10T05:15:28;97307.03;;;0.59;100.00
20394;BME280;10356;50.544;9.642;2022-12-10T05:17:56;97300.19;;;0.60;100.00
20394;BME280;10356;50.544;9.642;2022-12-10T05:20:23;97309.13;;;0.68;100.00
20394;BME280;10356;50.544;9.642;2022-12-10T05:22:49;97306.16;;;0.60;100.00
20394;BME280;10356;50.544;9.642;2022-12-10T05:25:33;97305.06;;;0.64;100.00
20394;BME280;10356;50.544;9.642;2022-12-10T05:28:18;97307.97;;;0.58;100.00
20394;BME280;10356;50.544;9.642;2022-12-10T05:30:44;97300.84;;;0.63;100.00
20394;BME280;10356;50.544;9.642;2022-12-10T05:33:12;97305.97;;;0.63;100.00
20394;BME280;10356;50.544;9.642;2022-12-10T05:35:39;97310.53;;;0.58;100.00
20394;BME280;10356;50.544;9.642;2022-12-10T05:38:06;97306.91;;;0.62;100.00
20394;BME280;10356;50.544;9.642;2022-12-10T05:40:34;97314.72;;;0.59;100.00
20394;BME280;10356;50.544;9.642;2022-12-10T05:43:00;97318.03;;;0.61;100.00
20394;BME280;10356;50.544;9.642;2022-12-10T05:45:27;97325.72;;;0.61;100.00
20394;BME280;10356;50.544;9.642;2022-12-10T05:47:56;97313.09;;;0.58;100.00
20394;BME280;10356;50.544;9.642;2022-12-10T05:50:24;97315.72;;;0.57;100.00
20394;BME280;10356;50.544;9.642;2022-12-10T05:52:50;97322.50;;;0.58;100.00
20394;BME280;10356;50.544;9.642;2022-12-10T05:55:17;97323.34;;;0.58;100.00
20394;BME280;10356;50.544;9.642;2022-12-10T05:57:43;97327.72;;;0.56;100.00
20394;BME280;10356;50.544;9.642;2022-12-10T06:00:11;97329.53;;;0.54;100.00
20394;BME280;10356;50.544;9.642;2022-12-10T06:02:38;97328.78;;;0.52;100.00
20394;BME280;10356;50.544;9.642;2022-12-10T06:05:04;97330.44;;;0.53;100.00
20394;BME280;10356;50.544;9.642;2022-12-10T06:07:32;97330.59;;;0.50;100.00
20394;BME280;10356;50.544;9.642;2022-12-10T06:09:59;97337.53;;;0.48;100.00
20394;BME280;10356;50.544;9.642;2022-12-10T06:12:25;97340.53;;;0.56;100.00
20394;BME280;10356;50.544;9.642;2022-12-10T06:14:52;97339.69;;;0.56;100.00
20394;BME280;10356;50.544;9.642;2022-12-10T06:17:18;97342.16;;;0.57;100.00
20394;BME280;10356;50.544;9.642;2022-12-10T06:19:45;97344.59;;;0.60;100.00
20394;BME280;10356;50.544;9.642;2022-12-10T06:22:11;97346.97;;;0.63;100.00
20394;BME280;10356;50.544;9.642;2022-12-10T06:24:39;97346.22;;;0.61;100.00
20394;BME280;10356;50.544;9.642;2022-12-10T06:27:06;97350.94;;;0.53;100.00
20394;BME280;10356;50.544;9.642;2022-12-10T06:29:33;97350.78;;;0.56;100.00
20394;BME280;10356;50.544;9.642;2022-12-10T06:31:59;97350.78;;;0.56;100.00
20394;BME280;10356;50.544;9.642;2022-12-10T06:34:26;97354.25;;;0.55;100.00
20394;BME280;10356;50.544;9.642;2022-12-10T06:36:53;97356.81;;;0.55;100.00
20394;BME280;10356;50.544;9.642;2022-12-10T06:39:19;97358.47;;;0.56;100.00
20394;BME280;10356;50.544;9.642;2022-12-10T06:41:47;97359.22;;;0.58;100.00
20394;BME280;10356;50.544;9.642;2022-12-10T06:44:13;97361.03;;;0.56;100.00
20394;BME280;10356;50.544;9.642;2022-12-10T06:46:40;97358.63;;;0.53;100.00
20394;BME280;10356;50.544;9.642;2022-12-10T06:49:07;97364.50;;;0.55;100.00
20394;BME280;10356;50.544;9.642;2022-12-10T06:51:34;97370.44;;;0.56;100.00
20394;BME280;10356;50.544;9.642;2022-12-10T06:54:00;97363.59;;;0.56;100.00
20394;BME280;10356;50.544;9.642;2022-12-10T06:56:27;97366.91;;;0.58;100.00
20394;BME280;10356;50.544;9.642;2022-12-10T06:58:55;97367.13;;;0.54;100.00
20394;BME280;10356;50.544;9.642;2022-12-10T07:01:23;97376.56;;;0.53;100.00
20394;BME280;10356;50.544;9.642;2022-12-10T07:03:52;97375.72;;;0.53;100.00
20394;BME280;10356;50.544;9.642;2022-12-10T07:06:20;97374.75;;;0.55;100.00
20394;BME280;10356;50.544;9.642;2022-12-10T07:08:47;97379.03;;;0.55;100.00
20394;BME280;10356;50.544;9.642;2022-12-10T07:11:17;97386.66;;;0.56;100.00
20394;BME280;10356;50.544;9.642;2022-12-10T07:13:44;97384.25;;;0.53;100.00
20394;BME280;10356;50.544;9.642;2022-12-10T07:16:16;97389.22;;;0.56;100.00
20394;BME280;10356;50.544;9.642;2022-12-10T07:18:43;97386.81;;;0.53;100.00
20394;BME280;10356;50.544;9.642;2022-12-10T07:21:14;97390.94;;;0.56;100.00
20394;BME280;10356;50.544;9.642;2022-12-10T07:23:41;97392.75;;;0.54;100.00
20394;BME280;10356;50.544;9.642;2022-12-10T07:26:07;97388.53;;;0.53;100.00
20394;BME280;10356;50.544;9.642;2022-12-10T07:28:34;97393.50;;;0.56;100.00
20394;BME280;10356;50.544;9.642;2022-12-10T07:31:01;97393.28;;;0.60;100.00
20394;BME280;10356;50.544;9.642;2022-12-10T07:33:29;97392.28;;;0.63;100.00
20394;BME280;10356;50.544;9.642;2022-12-10T07:35:55;97395.75;;;0.62;100.00
20394;BME280;10356;50.544;9.642;2022-12-10T07:38:22;97399.22;;;0.61;100.00
20394;BME280;10356;50.544;9.642;2022-12-10T07:40:49;97397.34;;;0.64;100.00
20394;BME280;10356;50.544;9.642;2022-12-10T07:43:16;97401.41;;;0.68;100.00
20394;BME280;10356;50.544;9.642;2022-12-10T07:45:43;97401.47;;;0.67;100.00
20394;BME280;10356;50.544;9.642;2022-12-10T07:48:09;97404.09;;;0.65;100.00
20394;BME280;10356;50.544;9.642;2022-12-10T07:50:37;97416.91;;;0.65;100.00
20394;BME280;10356;50.544;9.642;2022-12-10T07:53:03;97411.47;;;0.71;100.00
20394;BME280;10356;50.544;9.642;2022-12-10T07:55:30;97417.41;;;0.56;100.00
20394;BME280;10356;50.544;9.642;2022-12-10T07:57:56;97409.97;;;0.67;100.00
20394;BME280;10356;50.544;9.642;2022-12-10T08:00:23;97421.06;;;0.68;100.00
20394;BME280;10356;50.544;9.642;2022-12-10T08:02:49;97418.00;;;0.77;100.00
20394;BME280;10356;50.544;9.642;2022-12-10T08:05:16;97420.25;;;0.67;100.00
20394;BME280;10356;50.544;9.642;2022-12-10T08:07:44;97424.69;;;0.64;100.00
20394;BME280;10356;50.544;9.642;2022-12-10T08:10:11;97416.91;;;0.65;100.00
20394;BME280;10356;50.544;9.642;2022-12-10T08:12:37;97418.28;;;0.72;100.00
20394;BME280;10356;50.544;9.642;2022-12-10T08:15:04;97420.25;;;0.67;100.00
20394;BME280;10356;50.544;9.642;2022-12-10T08:17:31;97427.84;;;0.69;100.00
20394;BME280;10356;50.544;9.642;2022-12-10T08:19:57;97426.59;;;0.60;100.00
20394;BME280;10356;50.544;9.642;2022-12-10T08:22:24;97426.19;;;0.68;100.00
20394;BME280;10356;50.544;9.642;2022-12-10T08:24:52;97429.06;;;0.62;100.00
20394;BME280;10356;50.544;9.642;2022-12-10T08:27:18;97423.53;;;0.69;100.00
20394;BME280;10356;50.544;9.642;2022-12-10T08:29:44;97433.97;;;0.66;100.00
20394;BME280;10356;50.544;9.642;2022-12-10T08:32:11;97429.81;;;0.64;100.00
20394;BME280;10356;50.544;9.642;2022-12-10T08:34:37;97432.19;;;0.51;100.00
20394;BME280;10356;50.544;9.642;2022-12-10T08:37:04;97438.94;;;0.69;100.00
20394;BME280;10356;50.544;9.642;2022-12-10T08:39:30;97438.19;;;0.67;100.00
20394;BME280;10356;50.544;9.642;2022-12-10T08:42:00;97434.13;;;0.63;100.00
20394;BME280;10356;50.544;9.642;2022-12-10T08:44:26;97437.59;;;0.62;100.00
20394;BME280;10356;50.544;9.642;2022-12-10T08:46:53;97445.28;;;0.62;100.00
20394;BME280;10356;50.544;9.642;2022-12-10T08:49:19;97445.13;;;0.65;100.00
20394;BME280;10356;50.544;9.642;2022-12-10T08:51:46;97454.63;;;0.63;100.00
20394;BME280;10356;50.544;9.642;2022-12-10T08:54:12;97450.69;;;0.73;100.00
20394;BME280;10356;50.544;9.642;2022-12-10T08:56:39;97454.03;;;0.91;100.00
20394;BME280;10356;50.544;9.642;2022-12-10T08:59:07;97456.88;;;1.02;100.00
20394;BME280;10356;50.544;9.642;2022-12-10T09:01:33;97455.06;;;1.20;100.00
20394;BME280;10356;50.544;9.642;2022-12-10T09:04:00;97458.97;;;1.27;100.00
20394;BME280;10356;50.544;9.642;2022-12-10T09:06:27;97462.88;;;1.34;100.00
20394;BME280;10356;50.544;9.642;2022-12-10T09:08:53;97467.97;;;1.18;100.00
20394;BME280;10356;50.544;9.642;2022-12-10T09:11:22;97465.53;;;1.32;100.00
20394;BME280;10356;50.544;9.642;2022-12-10T09:13:49;97476.63;;;1.33;100.00
20394;BME280;10356;50.544;9.642;2022-12-10T09:16:17;97484.22;;;1.34;100.00
20394;BME280;10356;50.544;9.642;2022-12-10T09:18:47;97476.81;;;1.45;100.00
20394;BME280;10356;50.544;9.642;2022-12-10T09:21:15;97474.72;;;1.52;100.00
20394;BME280;10356;50.544;9.642;2022-12-10T09:23:42;97482.25;;;1.55;100.00
20394;BME280;10356;50.544;9.642;2022-12-10T09:26:11;97472.31;;;1.49;100.00
20394;BME280;10356;50.544;9.642;2022-12-10T09:28:38;97474.56;;;1.55;100.00
20394;BME280;10356;50.544;9.642;2022-12-10T09:31:05;97477.22;;;1.53;100.00
20394;BME280;10356;50.544;9.642;2022-12-10T09:33:34;97477.63;;;1.61;100.00
20394;BME280;10356;50.544;9.642;2022-12-10T09:36:02;97482.41;;;1.52;100.00
20394;BME280;10356;50.544;9.642;2022-12-10T09:38:29;97478.28;;;1.49;99.33
20394;BME280;10356;50.544;9.642;2022-12-10T09:41:00;97474.97;;;1.63;98.75
20394;BME280;10356;50.544;9.642;2022-12-10T09:43:37;97474.31;;;1.59;98.93
20394;BME280;10356;50.544;9.642;2022-12-10T09:46:12;97471.75;;;1.59;97.53
20394;BME280;10356;50.544;9.642;2022-12-10T09:48:52;97476.28;;;1.54;98.00
20394;BME280;10356;50.544;9.642;2022-12-10T09:51:26;97468.09;;;1.63;97.67
20394;BME280;10356;50.544;9.642;2022-12-10T09:53:55;97471.00;;;1.57;97.18
20394;BME280;10356;50.544;9.642;2022-12-10T09:56:26;97466.19;;;1.67;97.83
20394;BME280;10356;50.544;9.642;2022-12-10T09:58:55;97470.50;;;1.66;96.93
20394;BME280;10356;50.544;9.642;2022-12-10T10:01:24;97461.91;;;1.67;97.10
20394;BME280;10356;50.544;9.642;2022-12-10T10:03:54;97472.47;;;1.77;97.22
20394;BME280;10356;50.544;9.642;2022-12-10T10:06:21;97469.50;;;1.69;95.63
20394;BME280;10356;50.544;9.642;2022-12-10T10:08:52;97464.84;;;1.60;95.02
20394;BME280;10356;50.544;9.642;2022-12-10T10:11:22;97465.94;;;1.56;94.99
20394;BME280;10356;50.544;9.642;2022-12-10T10:13:52;97468.16;;;1.31;94.92
20394;BME280;10356;50.544;9.642;2022-12-10T10:16:23;97466.25;;;1.19;96.15
20394;BME280;10356;50.544;9.642;2022-12-10T10:18:56;97469.00;;;1.31;95.99
20394;BME280;10356;50.544;9.642;2022-12-10T10:21:26;97477.13;;;1.39;96.36
20394;BME280;10356;50.544;9.642;2022-12-10T10:23:53;97472.00;;;1.39;96.34
20394;BME280;10356;50.544;9.642;2022-12-10T10:26:20;97472.47;;;1.30;96.12
20394;BME280;10356;50.544;9.642;2022-12-10T10:28:49;97469.25;;;1.42;95.76
20394;BME280;10356;50.544;9.642;2022-12-10T10:31:19;97476.94;;;1.58;95.87
20394;BME280;10356;50.544;9.642;2022-12-10T10:33:50;97478.44;;;1.46;94.84
20394;BME280;10356;50.544;9.642;2022-12-10T10:36:25;97473.31;;;1.46;95.38
20394;BME280;10356;50.544;9.642;2022-12-10T10:38:52;97475.78;;;1.32;95.23
20394;BME280;10356;50.544;9.642;2022-12-10T10:41:19;97472.97;;;1.37;96.06
20394;BME280;10356;50.544;9.642;2022-12-10T10:43:46;97483.28;;;1.20;95.76
20394;BME280;10356;50.544;9.642;2022-12-10T10:46:15;97482.06;;;1.27;96.34
20394;BME280;10356;50.544;9.642;2022-12-10T10:48:42;97475.69;;;1.34;97.18
20394;BME280;10356;50.544;9.642;2022-12-10T10:51:17;97480.16;;;1.46;96.91
20394;BME280;10356;50.544;9.642;2022-12-10T10:53:48;97476.94;;;1.58;94.34
20394;BME280;10356;50.544;9.642;2022-12-10T10:56:18;97470.50;;;1.66;93.71
20394;BME280;10356;50.544;9.642;2022-12-10T10:58:55;97470.66;;;1.79;93.33
20394;BME280;10356;50.544;9.642;2022-12-10T11:01:24;97459.72;;;1.91;93.66
20394;BME280;10356;50.544;9.642;2022-12-10T11:03:54;97468.56;;;2.01;92.62
20394;BME280;10356;50.544;9.642;2022-12-10T11:06:22;97463.28;;;2.18;92.19
20394;BME280;10356;50.544;9.642;2022-12-10T11:08:54;97471.72;;;2.36;91.93
20394;BME280;10356;50.544;9.642;2022-12-10T11:11:29;97474.19;;;2.37;92.14
20394;BME280;10356;50.544;9.642;2022-12-10T11:14:12;97469.78;;;2.39;89.61
20394;BME280;10356;50.544;9.642;2022-12-10T11:16:39;97472.16;;;2.42;89.20
20394;BME280;10356;50.544;9.642;2022-12-10T11:19:18;97470.88;;;2.35;89.54
20394;BME280;10356;50.544;9.642;2022-12-10T11:21:45;97479.97;;;2.41;89.62
20394;BME280;10356;50.544;9.642;2022-12-10T11:24:17;97476.50;;;2.42;89.39
20394;BME280;10356;50.544;9.642;2022-12-10T11:26:57;97470.69;;;2.38;87.40
20394;BME280;10356;50.544;9.642;2022-12-10T11:29:48;97474.69;;;2.28;86.63
20394;BME280;10356;50.544;9.642;2022-12-10T11:32:46;97474.69;;;2.28;86.17
20394;BME280;10356;50.544;9.642;2022-12-10T11:35:20;97475.50;;;1.99;87.77
20394;BME280;10356;50.544;9.642;2022-12-10T11:37:57;97475.31;;;2.18;87.45
20394;BME280;10356;50.544;9.642;2022-12-10T11:40:35;97473.69;;;2.31;87.33
20394;BME280;10356;50.544;9.642;2022-12-10T11:43:18;97479.56;;;2.03;83.41
20394;BME280;10356;50.544;9.642;2022-12-10T11:45:59;97481.16;;;2.06;83.33
20394;BME280;10356;50.544;9.642;2022-12-10T11:48:41;97472.13;;;2.28;83.54
20394;BME280;10356;50.544;9.642;2022-12-10T11:51:19;97473.50;;;2.64;81.76
20394;BME280;10356;50.544;9.642;2022-12-10T11:53:59;97473.53;;;2.78;80.83
20394;BME280;10356;50.544;9.642;2022-12-10T11:56:33;97474.84;;;2.85;79.86
20394;BME280;10356;50.544;9.642;2022-12-10T11:59:12;97475.13;;;3.08;80.43
20394;BME280;10356;50.544;9.642;2022-12-10T12:01:54;97468.59;;;3.31;80.86
20394;BME280;10356;50.544;9.642;2022-12-10T12:04:30;97470.78;;;3.37;80.79
20394;BME280;10356;50.544;9.642;2022-12-10T12:07:12;97481.53;;;2.87;79.37
20394;BME280;10356;50.544;9.642;2022-12-10T12:09:54;97481.22;;;2.64;82.97
20394;BME280;10356;50.544;9.642;2022-12-10T12:12:34;97485.75;;;2.44;84.18
20394;BME280;10356;50.544;9.642;2022-12-10T12:15:13;97480.91;;;2.40;84.38
20394;BME280;10356;50.544;9.642;2022-12-10T12:17:46;97491.19;;;1.95;85.10
20394;BME280;10356;50.544;9.642;2022-12-10T12:20:17;97486.69;;;1.98;83.30
20394;BME280;10356;50.544;9.642;2022-12-10T12:22:48;97486.38;;;1.89;85.05
20394;BME280;10356;50.544;9.642;2022-12-10T12:25:22;97489.53;;;1.78;86.31
20394;BME280;10356;50.544;9.642;2022-12-10T12:27:56;97491.94;;;1.81;86.45
20394;BME280;10356;50.544;9.642;2022-12-10T12:30:26;97493.31;;;2.02;87.02
20394;BME280;10356;50.544;9.642;2022-12-10T12:32:56;97493.84;;;1.78;85.72
20394;BME280;10356;50.544;9.642;2022-12-10T12:35:38;97493.75;;;1.79;85.56
20394;BME280;10356;50.544;9.642;2022-12-10T12:38:19;97491.41;;;1.90;86.58
20394;BME280;10356;50.544;9.642;2022-12-10T12:40:51;97490.84;;;2.01;86.37
20394;BME280;10356;50.544;9.642;2022-12-10T12:43:24;97488.91;;;2.04;85.44
20394;BME280;10356;50.544;9.642;2022-12-10T12:45:54;97495.88;;;2.02;85.65
20394;BME280;10356;50.544;9.642;2022-12-10T12:48:26;97495.94;;;2.16;87.18
20394;BME280;10356;50.544;9.642;2022-12-10T12:50:56;97493.84;;;2.23;86.62
20394;BME280;10356;50.544;9.642;2022-12-10T12:53:25;97499.00;;;2.23;87.04
20394;BME280;10356;50.544;9.642;2022-12-10T12:55:58;97502.41;;;2.23;85.94
20394;BME280;10356;50.544;9.642;2022-12-10T12:58:37;97496.63;;;2.04;84.71
20394;BME280;10356;50.544;9.642;2022-12-10T13:01:15;97502.50;;;2.06;85.08
20394;BME280;10356;50.544;9.642;2022-12-10T13:03:45;97493.84;;;1.93;84.82
20394;BME280;10356;50.544;9.642;2022-12-10T13:06:15;97496.16;;;1.82;85.00
20394;BME280;10356;50.544;9.642;2022-12-10T13:08:45;97490.78;;;1.87;86.09
20394;BME280;10356;50.544;9.642;2022-12-10T13:11:27;97496.34;;;1.79;86.69
20394;BME280;10356;50.544;9.642;2022-12-10T13:14:30;97503.19;;;1.79;87.26
20394;BME280;10356;50.544;9.642;2022-12-10T13:20:27;97508.66;;;1.73;87.64